createdAt,value
2022-10-31T00:02:14.428Z,85.64
2022-10-31T00:05:22.611Z,85.20
2022-10-31T00:08:30.805Z,85.32
2022-10-31T00:11:39.133Z,85.43
2022-10-31T00:14:47.425Z,85.51
2022-10-31T00:17:57.480Z,85.81
2022-10-31T00:21:06.673Z,85.53
2022-10-31T00:24:15.313Z,85.57
2022-10-31T00:27:23.638Z,85.31
2022-10-31T00:30:33.193Z,85.58
2022-10-31T00:33:43.760Z,85.46
2022-10-31T00:36:52.271Z,85.50
2022-10-31T00:40:00.623Z,85.81
2022-10-31T00:43:09.009Z,85.51
2022-10-31T00:46:17.669Z,86.05
2022-10-31T00:49:27.434Z,85.83
2022-10-31T00:52:36.004Z,85.55
2022-10-31T00:55:44.819Z,85.79
2022-10-31T00:58:53.208Z,86.31
2022-10-31T01:02:02.879Z,85.55
2022-10-31T01:05:12.648Z,85.92
2022-10-31T01:08:20.817Z,86.08
2022-10-31T01:11:35.225Z,86.29
2022-10-31T01:14:47.566Z,86.01
2022-10-31T01:17:55.979Z,86.44
2022-10-31T01:24:27.546Z,85.79
2022-10-31T01:27:36.386Z,85.50
2022-10-31T01:30:44.768Z,86.23
2022-10-31T01:33:53.825Z,85.48
2022-10-31T01:37:02.885Z,85.24
2022-10-31T01:40:13.986Z,84.43
2022-10-31T01:46:41.838Z,85.32
2022-10-31T01:49:55.951Z,85.85
2022-10-31T01:53:07.182Z,85.50
2022-10-31T01:56:19.843Z,85.47
2022-10-31T01:59:33.164Z,85.08
2022-10-31T02:02:44.042Z,85.31
2022-10-31T02:05:55.397Z,85.62
2022-10-31T02:09:07.738Z,85.41
2022-10-31T02:12:19.749Z,84.59
2022-10-31T02:15:28.854Z,84.06
2022-10-31T02:18:37.326Z,83.12
2022-10-31T02:21:56.107Z,84.04
2022-10-31T02:25:36.612Z,84.21
2022-10-31T02:29:35.637Z,84.40
2022-10-31T02:33:17.763Z,84.03
2022-10-31T02:36:34.662Z,83.38
2022-10-31T02:39:58.835Z,84.42
2022-10-31T02:43:29.578Z,84.74
2022-10-31T02:46:47.055Z,84.00
2022-10-31T02:50:09.023Z,85.12
2022-10-31T02:53:18.064Z,85.01
2022-10-31T02:56:26.530Z,85.34
2022-10-31T02:59:39.182Z,84.96
2022-10-31T03:03:05.951Z,85.08
2022-10-31T03:06:26.231Z,85.32
2022-10-31T03:09:49.194Z,85.67
2022-10-31T03:13:11.839Z,85.70
2022-10-31T03:16:31.212Z,85.46
2022-10-31T03:19:48.103Z,85.36
2022-10-31T03:23:01.491Z,84.94
2022-10-31T03:26:13.437Z,83.16
2022-10-31T03:29:27.716Z,82.93
2022-10-31T03:32:44.126Z,83.85
2022-10-31T03:35:56.802Z,84.72
2022-10-31T03:39:14.133Z,84.68
2022-10-31T03:42:26.981Z,84.89
2022-10-31T03:45:41.430Z,85.18
2022-10-31T03:48:50.143Z,85.59
2022-10-31T03:52:05.185Z,86.39
2022-10-31T03:55:21.452Z,86.69
2022-10-31T03:58:38.339Z,85.68
2022-10-31T04:01:54.097Z,85.77
2022-10-31T04:05:04.596Z,85.91
2022-10-31T04:08:21.311Z,85.72
2022-10-31T04:11:37.154Z,85.74
2022-10-31T04:15:08.687Z,85.79
2022-10-31T04:18:17.282Z,85.58
2022-10-31T04:21:30.447Z,85.72
2022-10-31T04:24:42.498Z,85.05
2022-10-31T04:27:56.719Z,85.58
2022-10-31T04:31:05.942Z,85.52
2022-10-31T04:34:18.428Z,85.22
2022-10-31T04:37:26.776Z,85.44
2022-10-31T04:40:35.314Z,84.90
2022-10-31T04:44:17.453Z,84.87
2022-10-31T04:47:29.152Z,85.62
2022-10-31T04:50:37.596Z,85.34
2022-10-31T04:53:45.909Z,84.39
2022-10-31T04:57:09.684Z,84.47
2022-10-31T05:00:24.570Z,84.84
2022-10-31T05:03:33.179Z,85.31
2022-10-31T05:06:41.600Z,86.04
2022-10-31T05:09:50.625Z,86.38
2022-10-31T05:13:03.922Z,86.03
2022-10-31T05:16:32.640Z,86.52
2022-10-31T05:20:03.532Z,86.26
2022-10-31T05:23:32.269Z,85.10
2022-10-31T05:26:41.947Z,85.85
2022-10-31T05:29:51.614Z,85.64
2022-10-31T05:33:02.782Z,86.55
2022-10-31T05:36:47.921Z,86.88
2022-10-31T05:40:08.053Z,86.94
2022-10-31T05:43:17.505Z,86.48
2022-10-31T05:46:26.777Z,86.75
2022-10-31T05:50:12.992Z,86.18
2022-10-31T05:53:28.746Z,86.36
2022-10-31T05:56:37.738Z,86.34
2022-10-31T05:59:49.936Z,86.88
2022-10-31T06:03:04.192Z,86.01
2022-10-31T06:06:24.999Z,86.64
2022-10-31T06:09:34.378Z,86.31
2022-10-31T06:12:43.190Z,87.00
2022-10-31T06:16:11.876Z,86.40
2022-10-31T06:19:21.787Z,86.17
2022-10-31T06:26:26.768Z,85.32
2022-10-31T06:29:35.641Z,85.65
2022-10-31T06:32:50.391Z,84.99
2022-10-31T06:35:58.942Z,84.83
2022-10-31T06:39:08.272Z,85.18
2022-10-31T06:42:19.333Z,84.97
2022-10-31T06:45:28.526Z,85.01
2022-10-31T06:48:55.193Z,84.07
2022-10-31T06:52:24.306Z,85.01
2022-10-31T06:55:36.362Z,83.18
2022-10-31T06:58:47.662Z,83.39
2022-10-31T07:01:59.479Z,83.72
2022-10-31T07:05:09.058Z,83.03
2022-10-31T07:08:17.781Z,81.18
2022-10-31T07:11:29.606Z,81.90
2022-10-31T07:14:40.839Z,81.26
2022-10-31T07:17:49.437Z,79.39
2022-10-31T07:21:01.517Z,78.75
2022-10-31T07:24:09.912Z,80.13
2022-10-31T07:27:42.726Z,78.68
2022-10-31T07:30:56.990Z,78.54
2022-10-31T07:34:07.150Z,79.35
2022-10-31T07:37:35.312Z,77.19
2022-10-31T07:40:45.860Z,77.70
2022-10-31T07:43:57.046Z,76.94
2022-10-31T07:47:46.928Z,78.23
2022-10-31T07:51:14.021Z,77.60
2022-10-31T07:54:57.714Z,75.19
2022-10-31T07:58:09.607Z,74.43
2022-10-31T08:01:21.359Z,74.12
2022-10-31T08:04:48.348Z,73.03
2022-10-31T08:08:22.483Z,72.51
2022-10-31T08:11:30.866Z,71.20
2022-10-31T08:14:40.454Z,72.60
2022-10-31T08:17:49.724Z,74.71
2022-10-31T08:20:59.758Z,73.55
2022-10-31T08:24:09.383Z,74.50
2022-10-31T08:27:21.205Z,73.71
2022-10-31T08:30:32.712Z,74.17
2022-10-31T08:34:00.097Z,70.94
2022-10-31T08:37:25.623Z,71.34
2022-10-31T08:40:41.185Z,71.12
2022-10-31T08:43:49.688Z,69.33
2022-10-31T08:46:58.013Z,68.25
2022-10-31T08:50:10.813Z,67.74
2022-10-31T08:53:23.603Z,67.25
2022-10-31T08:56:43.776Z,68.32
2022-10-31T09:00:08.844Z,68.10
2022-10-31T09:03:35.841Z,68.42
2022-10-31T09:07:07.900Z,68.36
2022-10-31T09:10:15.508Z,69.79
2022-10-31T09:13:28.125Z,68.72
2022-10-31T09:16:55.758Z,68.21
2022-10-31T09:20:13.449Z,63.35
2022-10-31T09:23:24.390Z,62.32
2022-10-31T09:26:37.280Z,60.79
2022-10-31T09:30:11.452Z,60.85
2022-10-31T09:33:20.763Z,60.24
2022-10-31T09:36:42.294Z,58.24
2022-10-31T09:39:56.615Z,57.75
2022-10-31T09:43:31.360Z,55.81
2022-10-31T09:47:00.731Z,54.91
2022-10-31T09:50:22.119Z,55.73
2022-10-31T09:53:40.933Z,55.06
2022-10-31T09:56:54.837Z,56.00
2022-10-31T10:00:07.516Z,56.33
2022-10-31T10:03:36.388Z,55.95
2022-10-31T10:07:05.155Z,54.73
2022-10-31T10:10:40.933Z,54.04
2022-10-31T10:14:37.402Z,52.83
2022-10-31T10:18:01.890Z,53.70
2022-10-31T10:21:28.251Z,53.23
2022-10-31T10:25:04.099Z,53.37
2022-10-31T10:28:23.680Z,53.18
2022-10-31T10:31:42.451Z,53.20
2022-10-31T10:35:00.120Z,52.44
2022-10-31T10:38:20.159Z,52.31
2022-10-31T10:41:35.863Z,52.96
2022-10-31T10:45:06.951Z,52.68
2022-10-31T10:48:40.545Z,50.15
2022-10-31T10:55:40.309Z,51.48
2022-10-31T10:58:50.021Z,51.93
2022-10-31T11:02:00.638Z,51.76
2022-10-31T11:05:24.377Z,50.82
2022-10-31T11:08:37.716Z,49.42
2022-10-31T11:11:46.491Z,49.86
2022-10-31T11:15:00.567Z,50.62
2022-10-31T11:21:38.511Z,49.55
2022-10-31T11:24:48.858Z,49.42
2022-10-31T11:28:05.975Z,49.59
2022-10-31T11:31:18.009Z,50.28
2022-10-31T11:34:34.392Z,50.17
2022-10-31T11:37:46.563Z,51.18
2022-10-31T11:41:02.062Z,50.27
2022-10-31T11:44:19.989Z,49.64
2022-10-31T11:47:33.710Z,49.06
2022-10-31T11:50:44.537Z,49.26
2022-10-31T11:54:00.153Z,48.79
2022-10-31T11:57:30.827Z,48.78
2022-10-31T12:00:41.959Z,48.41
2022-10-31T12:04:08.531Z,48.43
2022-10-31T12:07:17.023Z,48.39
2022-10-31T12:10:40.362Z,49.53
2022-10-31T12:14:09.203Z,48.57
2022-10-31T12:17:25.513Z,48.26
2022-10-31T12:20:51.741Z,49.31
2022-10-31T12:24:18.776Z,48.39
2022-10-31T12:27:46.247Z,48.96
2022-10-31T12:31:17.876Z,50.63
2022-10-31T12:35:10.571Z,50.53
2022-10-31T12:38:39.418Z,51.21
2022-10-31T12:41:55.338Z,51.61
2022-10-31T12:45:44.028Z,51.49
2022-10-31T12:49:30.038Z,51.29
2022-10-31T12:52:58.668Z,51.90
2022-10-31T12:56:33.689Z,51.95
2022-10-31T12:59:49.434Z,52.44
2022-10-31T13:03:07.334Z,51.62
2022-10-31T13:06:23.207Z,51.75
2022-10-31T13:09:44.319Z,52.35
2022-10-31T13:13:03.855Z,52.96
2022-10-31T13:16:18.641Z,52.45
2022-10-31T13:19:34.064Z,51.73
2022-10-31T13:22:49.324Z,52.93
2022-10-31T13:26:03.409Z,52.24
2022-10-31T13:29:26.865Z,52.21
2022-10-31T13:32:45.389Z,52.39
2022-10-31T13:36:07.187Z,53.40
2022-10-31T13:39:34.985Z,54.19
2022-10-31T13:42:57.585Z,53.93
2022-10-31T13:46:26.037Z,54.90
2022-10-31T13:49:42.015Z,55.18
2022-10-31T13:52:50.458Z,55.93
2022-10-31T13:56:17.470Z,56.16
2022-10-31T13:59:29.227Z,56.66
2022-10-31T14:02:38.954Z,57.53
2022-10-31T14:05:56.385Z,57.19
2022-10-31T14:09:05.233Z,57.47
2022-10-31T14:12:28.732Z,58.79
2022-10-31T14:15:43.129Z,58.97
2022-10-31T14:19:02.596Z,59.18
2022-10-31T14:22:23.059Z,59.60
2022-10-31T14:25:34.797Z,59.72
2022-10-31T14:28:44.694Z,59.93
2022-10-31T14:32:11.762Z,60.86
2022-10-31T14:35:22.308Z,60.30
2022-10-31T14:38:49.494Z,60.15
2022-10-31T14:42:18.192Z,60.94
2022-10-31T14:45:42.229Z,60.84
2022-10-31T14:49:14.426Z,60.90
2022-10-31T14:52:23.578Z,60.98
2022-10-31T14:55:33.060Z,61.32
2022-10-31T14:58:46.771Z,60.89
2022-10-31T15:02:03.544Z,61.16
2022-10-31T15:05:14.666Z,61.80
2022-10-31T15:08:36.877Z,63.28
2022-10-31T15:11:46.401Z,63.89
2022-10-31T15:14:56.857Z,64.15
2022-10-31T15:18:08.158Z,64.67
2022-10-31T15:21:18.451Z,65.50
2022-10-31T15:24:34.826Z,65.92
2022-10-31T15:27:43.404Z,65.99
2022-10-31T15:30:58.022Z,66.34
2022-10-31T15:34:24.199Z,66.44
2022-10-31T15:41:29.936Z,67.43
2022-10-31T15:44:44.563Z,68.13
2022-10-31T15:47:59.747Z,68.62
2022-10-31T15:51:09.808Z,69.48
2022-10-31T15:54:18.299Z,70.51
2022-10-31T15:57:28.255Z,70.49
2022-10-31T16:00:40.310Z,71.24
2022-10-31T16:04:02.767Z,71.35
2022-10-31T16:07:40.986Z,72.19
2022-10-31T16:10:50.334Z,72.42
2022-10-31T16:14:04.044Z,72.78
2022-10-31T16:17:16.209Z,73.43
2022-10-31T16:20:32.943Z,74.21
2022-10-31T16:23:58.407Z,74.54
2022-10-31T16:27:21.650Z,74.50
2022-10-31T16:30:45.388Z,75.07
2022-10-31T16:34:06.069Z,75.59
2022-10-31T16:37:14.538Z,76.02
2022-10-31T16:40:24.858Z,76.06
2022-10-31T16:43:33.979Z,76.75
2022-10-31T16:46:42.569Z,77.05
2022-10-31T16:49:54.884Z,77.59
2022-10-31T16:53:19.237Z,78.52
2022-10-31T16:56:51.020Z,79.18
2022-10-31T17:00:00.333Z,79.50
2022-10-31T17:03:11.237Z,80.09
2022-10-31T17:06:19.639Z,78.85
2022-10-31T17:09:28.051Z,80.68
2022-10-31T17:12:39.020Z,80.60
2022-10-31T17:15:53.079Z,80.58
2022-10-31T17:19:01.357Z,81.23
2022-10-31T17:22:13.371Z,81.17
2022-10-31T17:25:24.496Z,81.76
2022-10-31T17:28:39.688Z,82.28
2022-10-31T17:31:50.304Z,82.29
2022-10-31T17:34:58.719Z,82.93
2022-10-31T17:38:07.065Z,83.39
2022-10-31T17:41:15.506Z,83.02
2022-10-31T17:44:25.233Z,82.60
2022-10-31T17:47:34.240Z,82.96
2022-10-31T17:50:43.004Z,83.00
2022-10-31T17:53:51.387Z,83.24
2022-10-31T17:57:04.557Z,83.68
2022-10-31T18:00:19.434Z,83.34
2022-10-31T18:03:28.610Z,83.66
2022-10-31T18:06:46.174Z,84.33
2022-10-31T18:09:55.505Z,84.42
2022-10-31T18:13:04.873Z,84.44
2022-10-31T18:16:19.684Z,84.05
2022-10-31T18:19:28.090Z,84.32
2022-10-31T18:22:36.562Z,84.48
2022-10-31T18:25:44.845Z,84.08
2022-10-31T18:28:53.340Z,84.67
2022-10-31T18:32:08.248Z,85.10
2022-10-31T18:35:17.598Z,85.80
2022-10-31T18:38:25.956Z,85.39
2022-10-31T18:41:35.558Z,85.71
2022-10-31T18:44:44.058Z,85.42
2022-10-31T18:47:54.157Z,85.55
2022-10-31T18:54:13.393Z,84.98
2022-10-31T18:57:21.707Z,85.97
2022-10-31T19:00:30.350Z,84.61
2022-10-31T19:03:41.177Z,85.64
2022-10-31T19:06:49.536Z,85.14
2022-10-31T19:09:58.281Z,84.50
2022-10-31T19:13:07.010Z,84.91
2022-10-31T19:16:18.421Z,85.23
2022-10-31T19:19:28.294Z,85.31
2022-10-31T19:22:36.697Z,85.35
2022-10-31T19:28:58.641Z,85.02
2022-10-31T19:32:07.558Z,85.53
2022-10-31T19:35:17.527Z,85.62
2022-10-31T19:38:26.167Z,85.33
2022-10-31T19:41:34.549Z,85.22
2022-10-31T19:44:43.428Z,85.26
2022-10-31T19:47:51.791Z,85.78
2022-10-31T19:51:07.483Z,85.16
2022-10-31T19:54:16.176Z,85.25
2022-10-31T19:57:48.466Z,85.94
2022-10-31T20:00:53.847Z,86.10
2022-10-31T20:04:02.434Z,85.58
2022-10-31T20:07:12.315Z,86.49
2022-10-31T20:10:20.921Z,86.54
2022-10-31T20:13:31.248Z,86.09
2022-10-31T20:16:40.491Z,85.92
2022-10-31T20:19:49.117Z,85.32
2022-10-31T20:23:01.625Z,85.18
2022-10-31T20:26:16.566Z,86.04
2022-10-31T20:33:07.661Z,83.82
2022-10-31T20:36:19.457Z,83.79
2022-10-31T20:39:29.650Z,85.12
2022-10-31T20:42:38.381Z,85.98
2022-10-31T20:45:46.646Z,86.57
2022-10-31T20:48:55.928Z,87.44
2022-10-31T20:52:04.378Z,87.21
2022-10-31T20:55:14.569Z,87.64
2022-10-31T20:58:23.010Z,87.68
2022-10-31T21:01:33.526Z,87.46
2022-10-31T21:04:42.012Z,87.49
2022-10-31T21:11:09.952Z,87.32
2022-10-31T21:14:18.187Z,87.46
2022-10-31T21:17:26.748Z,87.54
2022-10-31T21:20:35.436Z,86.33
2022-10-31T21:23:44.720Z,87.11
2022-10-31T21:26:56.133Z,86.98
2022-10-31T21:30:05.909Z,86.66
2022-10-31T21:33:14.364Z,87.20
2022-10-31T21:36:22.930Z,87.03
2022-10-31T21:39:31.175Z,86.72
2022-10-31T21:42:40.851Z,87.03
2022-10-31T21:45:49.107Z,85.98
2022-10-31T21:48:58.244Z,86.54
2022-10-31T21:52:06.634Z,86.22
2022-10-31T21:55:15.185Z,85.55
2022-10-31T21:58:24.884Z,85.53
2022-10-31T22:01:34.515Z,85.17
2022-10-31T22:04:44.121Z,85.01
2022-10-31T22:07:52.457Z,85.57
2022-10-31T22:11:03.974Z,85.62
2022-10-31T22:14:16.424Z,86.50
2022-10-31T22:17:28.836Z,85.84
2022-10-31T22:20:39.105Z,86.42
2022-10-31T22:23:52.825Z,86.55
2022-10-31T22:27:01.468Z,86.87
2022-10-31T22:30:13.000Z,86.38
2022-10-31T22:33:21.195Z,86.71
2022-10-31T22:36:32.045Z,86.65
2022-10-31T22:39:40.249Z,86.65
2022-10-31T22:42:48.592Z,86.67
2022-10-31T22:46:03.560Z,86.49
2022-10-31T22:49:16.532Z,86.57
2022-10-31T22:52:24.739Z,86.42
2022-10-31T22:55:37.527Z,85.96
2022-10-31T22:58:46.202Z,85.71
2022-10-31T23:01:56.182Z,86.24
2022-10-31T23:05:04.848Z,86.33
2022-10-31T23:08:13.652Z,86.19
2022-10-31T23:11:25.373Z,87.22
2022-10-31T23:14:32.885Z,86.53
2022-10-31T23:17:43.017Z,86.73
2022-10-31T23:20:53.319Z,86.20
2022-10-31T23:24:03.030Z,84.70
2022-10-31T23:27:16.411Z,83.66
2022-10-31T23:30:25.749Z,85.29
2022-10-31T23:33:35.949Z,86.31
2022-10-31T23:36:44.167Z,86.15
2022-10-31T23:39:52.494Z,85.79
2022-10-31T23:43:00.791Z,86.05
2022-10-31T23:46:09.034Z,86.32
2022-10-31T23:49:18.653Z,86.70
2022-10-31T23:52:26.876Z,86.63
2022-10-31T23:55:35.181Z,86.72
2022-10-31T23:58:43.556Z,85.96
